sensor_id;sensor_type;location;lat;lon;timestamp;temperature;humidity
7998;DHT22;4044;49.814;7.828;2023-08-06T00:01:38;16.10;99.90
7998;DHT22;4044;49.814;7.828;2023-08-06T00:04:03;16.10;99.90
7998;DHT22;4044;49.814;7.828;2023-08-06T00:06:29;16.00;99.90
7998;DHT22;4044;49.814;7.828;2023-08-06T00:08:54;16.10;99.90
7998;DHT22;4044;49.814;7.828;2023-08-06T00:11:20;16.30;99.90
7998;DHT22;4044;49.814;7.828;2023-08-06T00:13:46;16.30;99.90
7998;DHT22;4044;49.814;7.828;2023-08-06T00:16:12;16.40;99.90
7998;DHT22;4044;49.814;7.828;2023-08-06T00:18:38;16.40;99.90
7998;DHT22;4044;49.814;7.828;2023-08-06T00:21:04;16.50;99.90
7998;DHT22;4044;49.814;7.828;2023-08-06T00:23:30;16.60;99.90
7998;DHT22;4044;49.814;7.828;2023-08-06T00:25:55;16.70;99.90
7998;DHT22;4044;49.814;7.828;2023-08-06T00:28:21;16.70;99.90
7998;DHT22;4044;49.814;7.828;2023-08-06T00:30:46;16.80;99.90
7998;DHT22;4044;49.814;7.828;2023-08-06T00:33:17;16.80;99.90
7998;DHT22;4044;49.814;7.828;2023-08-06T00:35:42;16.90;99.90
7998;DHT22;4044;49.814;7.828;2023-08-06T00:38:08;16.90;99.90
7998;DHT22;4044;49.814;7.828;2023-08-06T00:40:33;16.90;99.90
7998;DHT22;4044;49.814;7.828;2023-08-06T00:42:59;16.90;99.90
7998;DHT22;4044;49.814;7.828;2023-08-06T00:45:25;17.00;99.90
7998;DHT22;4044;49.814;7.828;2023-08-06T00:47:51;17.00;99.90
7998;DHT22;4044;49.814;7.828;2023-08-06T00:50:17;17.00;99.90
7998;DHT22;4044;49.814;7.828;2023-08-06T00:52:42;17.10;99.90
7998;DHT22;4044;49.814;7.828;2023-08-06T00:55:08;17.10;99.90
7998;DHT22;4044;49.814;7.828;2023-08-06T00:57:35;17.10;99.90
7998;DHT22;4044;49.814;7.828;2023-08-06T01:00:00;17.10;99.90
7998;DHT22;4044;49.814;7.828;2023-08-06T01:02:26;17.10;99.90
7998;DHT22;4044;49.814;7.828;2023-08-06T01:04:52;17.10;99.90
7998;DHT22;4044;49.814;7.828;2023-08-06T01:15:19;17.00;99.90
7998;DHT22;4044;49.814;7.828;2023-08-06T01:17:46;17.00;99.90
7998;DHT22;4044;49.814;7.828;2023-08-06T01:20:12;16.90;99.90
7998;DHT22;4044;49.814;7.828;2023-08-06T01:22:38;16.90;99.90
7998;DHT22;4044;49.814;7.828;2023-08-06T01:25:03;16.80;99.90
7998;DHT22;4044;49.814;7.828;2023-08-06T01:27:50;16.70;99.90
7998;DHT22;4044;49.814;7.828;2023-08-06T01:30:30;16.50;99.90
7998;DHT22;4044;49.814;7.828;2023-08-06T01:33:03;16.30;99.90
7998;DHT22;4044;49.814;7.828;2023-08-06T01:35:30;16.20;99.90
7998;DHT22;4044;49.814;7.828;2023-08-06T01:37:55;16.10;99.90
7998;DHT22;4044;49.814;7.828;2023-08-06T01:40:21;16.00;99.90
7998;DHT22;4044;49.814;7.828;2023-08-06T01:42:47;15.90;99.90
7998;DHT22;4044;49.814;7.828;2023-08-06T01:45:12;15.80;99.90
7998;DHT22;4044;49.814;7.828;2023-08-06T01:47:38;15.80;99.90
7998;DHT22;4044;49.814;7.828;2023-08-06T01:50:04;15.70;99.90
7998;DHT22;4044;49.814;7.828;2023-08-06T01:52:29;15.90;99.90
7998;DHT22;4044;49.814;7.828;2023-08-06T01:54:55;15.90;99.90
7998;DHT22;4044;49.814;7.828;2023-08-06T01:57:21;16.00;99.90
7998;DHT22;4044;49.814;7.828;2023-08-06T01:59:46;16.00;99.90
7998;DHT22;4044;49.814;7.828;2023-08-06T02:02:12;16.10;99.90
7998;DHT22;4044;49.814;7.828;2023-08-06T02:04:37;16.20;99.90
7998;DHT22;4044;49.814;7.828;2023-08-06T02:07:03;16.30;99.90
7998;DHT22;4044;49.814;7.828;2023-08-06T02:09:29;16.30;99.90
7998;DHT22;4044;49.814;7.828;2023-08-06T02:11:54;16.30;99.90
7998;DHT22;4044;49.814;7.828;2023-08-06T02:14:20;16.20;99.90
7998;DHT22;4044;49.814;7.828;2023-08-06T02:16:45;16.00;99.90
7998;DHT22;4044;49.814;7.828;2023-08-06T02:19:11;15.90;99.90
7998;DHT22;4044;49.814;7.828;2023-08-06T02:21:36;15.80;99.90
7998;DHT22;4044;49.814;7.828;2023-08-06T02:24:02;15.80;99.90
7998;DHT22;4044;49.814;7.828;2023-08-06T02:26:27;15.90;99.90
7998;DHT22;4044;49.814;7.828;2023-08-06T02:28:53;16.10;99.90
7998;DHT22;4044;49.814;7.828;2023-08-06T02:31:18;16.10;99.90
7998;DHT22;4044;49.814;7.828;2023-08-06T02:33:44;16.30;99.90
7998;DHT22;4044;49.814;7.828;2023-08-06T02:36:09;16.30;99.90
7998;DHT22;4044;49.814;7.828;2023-08-06T02:38:35;16.40;99.90
7998;DHT22;4044;49.814;7.828;2023-08-06T02:41:04;16.40;99.90
7998;DHT22;4044;49.814;7.828;2023-08-06T02:43:30;16.50;99.90
7998;DHT22;4044;49.814;7.828;2023-08-06T02:45:59;16.60;99.90
7998;DHT22;4044;49.814;7.828;2023-08-06T02:48:25;16.60;99.90
7998;DHT22;4044;49.814;7.828;2023-08-06T02:50:50;16.70;99.90
7998;DHT22;4044;49.814;7.828;2023-08-06T02:53:16;16.80;99.90
7998;DHT22;4044;49.814;7.828;2023-08-06T02:55:46;16.80;99.90
7998;DHT22;4044;49.814;7.828;2023-08-06T02:58:16;16.70;99.90
7998;DHT22;4044;49.814;7.828;2023-08-06T03:00:43;16.50;99.90
7998;DHT22;4044;49.814;7.828;2023-08-06T03:03:08;16.40;99.90
7998;DHT22;4044;49.814;7.828;2023-08-06T03:05:34;16.20;99.90
7998;DHT22;4044;49.814;7.828;2023-08-06T03:08:00;16.00;99.90
7998;DHT22;4044;49.814;7.828;2023-08-06T03:10:25;15.90;99.90
7998;DHT22;4044;49.814;7.828;2023-08-06T03:12:51;16.00;99.90
7998;DHT22;4044;49.814;7.828;2023-08-06T03:15:16;15.80;99.90
7998;DHT22;4044;49.814;7.828;2023-08-06T03:17:42;15.80;99.90
7998;DHT22;4044;49.814;7.828;2023-08-06T03:20:07;15.80;99.90
7998;DHT22;4044;49.814;7.828;2023-08-06T03:22:33;15.80;99.90
7998;DHT22;4044;49.814;7.828;2023-08-06T03:24:58;15.80;99.90
7998;DHT22;4044;49.814;7.828;2023-08-06T03:27:24;15.80;99.90
7998;DHT22;4044;49.814;7.828;2023-08-06T03:29:50;15.90;99.90
7998;DHT22;4044;49.814;7.828;2023-08-06T03:32:15;15.80;99.90
7998;DHT22;4044;49.814;7.828;2023-08-06T03:34:41;15.70;99.90
7998;DHT22;4044;49.814;7.828;2023-08-06T03:37:07;15.70;99.90
7998;DHT22;4044;49.814;7.828;2023-08-06T03:39:32;15.60;99.90
7998;DHT22;4044;49.814;7.828;2023-08-06T03:41:58;15.70;99.90
7998;DHT22;4044;49.814;7.828;2023-08-06T03:44:23;15.70;99.90
7998;DHT22;4044;49.814;7.828;2023-08-06T03:46:49;15.70;99.90
7998;DHT22;4044;49.814;7.828;2023-08-06T03:49:14;15.60;99.90
7998;DHT22;4044;49.814;7.828;2023-08-06T03:51:40;15.60;99.90
7998;DHT22;4044;49.814;7.828;2023-08-06T03:54:05;15.40;99.90
7998;DHT22;4044;49.814;7.828;2023-08-06T03:56:31;15.30;99.90
7998;DHT22;4044;49.814;7.828;2023-08-06T03:58:56;15.30;99.90
7998;DHT22;4044;49.814;7.828;2023-08-06T04:01:22;15.20;99.90
7998;DHT22;4044;49.814;7.828;2023-08-06T04:03:47;15.20;99.90
7998;DHT22;4044;49.814;7.828;2023-08-06T04:06:13;15.10;99.90
7998;DHT22;4044;49.814;7.828;2023-08-06T04:08:38;15.00;99.90
7998;DHT22;4044;49.814;7.828;2023-08-06T04:11:04;15.00;99.90
7998;DHT22;4044;49.814;7.828;2023-08-06T04:13:29;14.90;99.90
7998;DHT22;4044;49.814;7.828;2023-08-06T04:15:55;14.90;99.90
7998;DHT22;4044;49.814;7.828;2023-08-06T04:18:20;14.80;99.90
7998;DHT22;4044;49.814;7.828;2023-08-06T04:20:47;14.70;99.90
7998;DHT22;4044;49.814;7.828;2023-08-06T04:23:14;14.60;99.90
7998;DHT22;4044;49.814;7.828;2023-08-06T04:25:40;14.70;99.90
7998;DHT22;4044;49.814;7.828;2023-08-06T04:28:06;14.80;99.90
7998;DHT22;4044;49.814;7.828;2023-08-06T04:30:32;14.70;99.90
7998;DHT22;4044;49.814;7.828;2023-08-06T04:32:58;14.70;99.90
7998;DHT22;4044;49.814;7.828;2023-08-06T04:35:23;14.80;99.90
7998;DHT22;4044;49.814;7.828;2023-08-06T04:37:49;14.90;99.90
7998;DHT22;4044;49.814;7.828;2023-08-06T04:40:14;14.90;99.90
7998;DHT22;4044;49.814;7.828;2023-08-06T04:42:40;15.00;99.90
7998;DHT22;4044;49.814;7.828;2023-08-06T04:45:06;15.10;99.90
7998;DHT22;4044;49.814;7.828;2023-08-06T04:47:32;14.90;99.90
7998;DHT22;4044;49.814;7.828;2023-08-06T04:49:57;14.80;99.90
7998;DHT22;4044;49.814;7.828;2023-08-06T04:52:23;14.80;99.90
7998;DHT22;4044;49.814;7.828;2023-08-06T04:54:48;14.80;99.90
7998;DHT22;4044;49.814;7.828;2023-08-06T04:57:14;14.70;99.90
7998;DHT22;4044;49.814;7.828;2023-08-06T04:59:39;14.70;99.90
7998;DHT22;4044;49.814;7.828;2023-08-06T05:02:05;14.70;99.90
7998;DHT22;4044;49.814;7.828;2023-08-06T05:04:30;14.70;99.90
7998;DHT22;4044;49.814;7.828;2023-08-06T05:06:56;14.60;99.90
7998;DHT22;4044;49.814;7.828;2023-08-06T05:09:21;14.60;99.90
7998;DHT22;4044;49.814;7.828;2023-08-06T05:11:47;14.70;99.90
7998;DHT22;4044;49.814;7.828;2023-08-06T05:14:13;14.60;99.90
7998;DHT22;4044;49.814;7.828;2023-08-06T05:16:39;14.50;99.90
7998;DHT22;4044;49.814;7.828;2023-08-06T05:19:04;14.50;99.90
7998;DHT22;4044;49.814;7.828;2023-08-06T05:21:30;14.50;99.90
7998;DHT22;4044;49.814;7.828;2023-08-06T05:23:55;14.40;99.90
7998;DHT22;4044;49.814;7.828;2023-08-06T05:26:21;14.40;99.90
7998;DHT22;4044;49.814;7.828;2023-08-06T05:28:46;14.50;99.90
7998;DHT22;4044;49.814;7.828;2023-08-06T05:31:12;14.40;99.90
7998;DHT22;4044;49.814;7.828;2023-08-06T05:33:38;14.40;99.90
7998;DHT22;4044;49.814;7.828;2023-08-06T05:36:04;14.40;99.90
7998;DHT22;4044;49.814;7.828;2023-08-06T05:38:30;14.40;99.90
7998;DHT22;4044;49.814;7.828;2023-08-06T05:40:55;14.40;99.90
7998;DHT22;4044;49.814;7.828;2023-08-06T05:43:22;14.40;99.90
7998;DHT22;4044;49.814;7.828;2023-08-06T05:45:50;14.50;99.90
7998;DHT22;4044;49.814;7.828;2023-08-06T05:48:15;14.50;99.90
7998;DHT22;4044;49.814;7.828;2023-08-06T05:50:41;14.50;99.90
7998;DHT22;4044;49.814;7.828;2023-08-06T05:53:07;14.50;99.90
7998;DHT22;4044;49.814;7.828;2023-08-06T05:55:33;14.50;99.90
7998;DHT22;4044;49.814;7.828;2023-08-06T05:57:58;14.60;99.90
7998;DHT22;4044;49.814;7.828;2023-08-06T06:00:24;14.60;99.90
7998;DHT22;4044;49.814;7.828;2023-08-06T06:02:50;14.60;99.90
7998;DHT22;4044;49.814;7.828;2023-08-06T06:05:15;14.80;99.90
7998;DHT22;4044;49.814;7.828;2023-08-06T06:07:41;14.90;99.90
7998;DHT22;4044;49.814;7.828;2023-08-06T06:10:07;15.00;99.90
7998;DHT22;4044;49.814;7.828;2023-08-06T06:12:32;15.00;99.90
7998;DHT22;4044;49.814;7.828;2023-08-06T06:14:58;15.10;99.90
7998;DHT22;4044;49.814;7.828;2023-08-06T06:17:23;15.40;99.90
7998;DHT22;4044;49.814;7.828;2023-08-06T06:19:49;15.40;99.90
7998;DHT22;4044;49.814;7.828;2023-08-06T06:22:14;15.30;99.90
7998;DHT22;4044;49.814;7.828;2023-08-06T06:24:40;15.40;99.90
7998;DHT22;4044;49.814;7.828;2023-08-06T06:27:06;15.50;99.90
7998;DHT22;4044;49.814;7.828;2023-08-06T06:29:31;15.60;99.90
7998;DHT22;4044;49.814;7.828;2023-08-06T06:31:57;15.60;99.90
7998;DHT22;4044;49.814;7.828;2023-08-06T06:34:22;15.70;99.90
7998;DHT22;4044;49.814;7.828;2023-08-06T06:36:48;15.90;99.90
7998;DHT22;4044;49.814;7.828;2023-08-06T06:39:15;15.80;99.90
7998;DHT22;4044;49.814;7.828;2023-08-06T06:41:41;15.80;99.90
7998;DHT22;4044;49.814;7.828;2023-08-06T06:44:06;15.80;99.90
7998;DHT22;4044;49.814;7.828;2023-08-06T06:46:32;15.80;99.90
7998;DHT22;4044;49.814;7.828;2023-08-06T06:48:57;16.00;99.90
7998;DHT22;4044;49.814;7.828;2023-08-06T06:51:23;16.00;99.90
7998;DHT22;4044;49.814;7.828;2023-08-06T06:53:48;15.90;99.90
7998;DHT22;4044;49.814;7.828;2023-08-06T06:56:14;15.80;99.90
7998;DHT22;4044;49.814;7.828;2023-08-06T06:58:39;15.80;99.90
7998;DHT22;4044;49.814;7.828;2023-08-06T07:01:06;15.80;99.90
7998;DHT22;4044;49.814;7.828;2023-08-06T07:03:32;15.80;99.90
7998;DHT22;4044;49.814;7.828;2023-08-06T07:05:58;15.80;99.90
7998;DHT22;4044;49.814;7.828;2023-08-06T07:08:24;15.80;99.90
7998;DHT22;4044;49.814;7.828;2023-08-06T07:10:50;15.80;99.90
7998;DHT22;4044;49.814;7.828;2023-08-06T07:13:15;15.80;99.90
7998;DHT22;4044;49.814;7.828;2023-08-06T07:15:42;15.90;99.90
7998;DHT22;4044;49.814;7.828;2023-08-06T07:18:07;15.90;99.90
7998;DHT22;4044;49.814;7.828;2023-08-06T07:20:33;16.00;99.90
7998;DHT22;4044;49.814;7.828;2023-08-06T07:23:00;16.00;99.90
7998;DHT22;4044;49.814;7.828;2023-08-06T07:25:26;16.10;99.90
7998;DHT22;4044;49.814;7.828;2023-08-06T07:27:52;16.10;99.90
7998;DHT22;4044;49.814;7.828;2023-08-06T07:30:17;16.20;99.90
7998;DHT22;4044;49.814;7.828;2023-08-06T07:32:43;16.40;99.90
7998;DHT22;4044;49.814;7.828;2023-08-06T07:35:08;16.60;99.90
7998;DHT22;4044;49.814;7.828;2023-08-06T07:37:40;16.80;99.90
7998;DHT22;4044;49.814;7.828;2023-08-06T07:40:06;17.00;99.90
7998;DHT22;4044;49.814;7.828;2023-08-06T07:42:32;17.30;99.90
7998;DHT22;4044;49.814;7.828;2023-08-06T07:44:58;17.50;99.90
7998;DHT22;4044;49.814;7.828;2023-08-06T07:47:24;17.80;99.90
7998;DHT22;4044;49.814;7.828;2023-08-06T07:49:50;17.80;99.90
7998;DHT22;4044;49.814;7.828;2023-08-06T07:52:15;17.60;99.90
7998;DHT22;4044;49.814;7.828;2023-08-06T07:54:41;17.50;99.90
7998;DHT22;4044;49.814;7.828;2023-08-06T07:57:07;17.60;99.90
7998;DHT22;4044;49.814;7.828;2023-08-06T07:59:33;17.60;99.90
7998;DHT22;4044;49.814;7.828;2023-08-06T08:01:58;17.30;99.90
7998;DHT22;4044;49.814;7.828;2023-08-06T08:04:24;17.10;99.90
7998;DHT22;4044;49.814;7.828;2023-08-06T08:06:50;17.20;99.90
7998;DHT22;4044;49.814;7.828;2023-08-06T08:09:15;17.20;99.90
7998;DHT22;4044;49.814;7.828;2023-08-06T08:11:41;17.00;99.90
7998;DHT22;4044;49.814;7.828;2023-08-06T08:14:07;16.90;99.90
7998;DHT22;4044;49.814;7.828;2023-08-06T08:16:33;16.80;99.90
7998;DHT22;4044;49.814;7.828;2023-08-06T08:18:58;16.90;99.90
7998;DHT22;4044;49.814;7.828;2023-08-06T08:21:24;16.90;99.90
7998;DHT22;4044;49.814;7.828;2023-08-06T08:23:50;16.90;99.90
7998;DHT22;4044;49.814;7.828;2023-08-06T08:26:15;16.90;99.90
7998;DHT22;4044;49.814;7.828;2023-08-06T08:28:41;17.10;99.90
7998;DHT22;4044;49.814;7.828;2023-08-06T08:31:10;17.40;99.90
7998;DHT22;4044;49.814;7.828;2023-08-06T08:33:37;17.50;99.90
7998;DHT22;4044;49.814;7.828;2023-08-06T08:36:03;17.70;99.90
7998;DHT22;4044;49.814;7.828;2023-08-06T08:38:28;17.90;99.90
7998;DHT22;4044;49.814;7.828;2023-08-06T08:40:54;18.00;99.90
7998;DHT22;4044;49.814;7.828;2023-08-06T08:43:23;18.10;99.90
7998;DHT22;4044;49.814;7.828;2023-08-06T08:45:50;18.40;99.90
7998;DHT22;4044;49.814;7.828;2023-08-06T08:48:17;18.40;99.90
7998;DHT22;4044;49.814;7.828;2023-08-06T08:50:47;18.30;99.90
7998;DHT22;4044;49.814;7.828;2023-08-06T08:53:17;18.40;99.90
7998;DHT22;4044;49.814;7.828;2023-08-06T08:55:43;18.40;99.90
7998;DHT22;4044;49.814;7.828;2023-08-06T08:58:10;18.20;99.90
7998;DHT22;4044;49.814;7.828;2023-08-06T09:00:35;18.10;99.90
7998;DHT22;4044;49.814;7.828;2023-08-06T09:03:02;18.10;99.90
7998;DHT22;4044;49.814;7.828;2023-08-06T09:05:30;18.10;99.90
7998;DHT22;4044;49.814;7.828;2023-08-06T09:08:02;18.00;99.90
7998;DHT22;4044;49.814;7.828;2023-08-06T09:10:28;18.00;99.90
7998;DHT22;4044;49.814;7.828;2023-08-06T09:12:55;18.30;99.90
7998;DHT22;4044;49.814;7.828;2023-08-06T09:15:24;18.60;99.90
7998;DHT22;4044;49.814;7.828;2023-08-06T09:17:51;18.70;99.90
7998;DHT22;4044;49.814;7.828;2023-08-06T09:20:17;18.90;99.90
7998;DHT22;4044;49.814;7.828;2023-08-06T09:22:43;18.70;99.90
7998;DHT22;4044;49.814;7.828;2023-08-06T09:25:09;18.50;99.90
7998;DHT22;4044;49.814;7.828;2023-08-06T09:27:36;18.30;99.90
7998;DHT22;4044;49.814;7.828;2023-08-06T09:30:03;18.00;99.90
7998;DHT22;4044;49.814;7.828;2023-08-06T09:32:48;17.90;99.90
7998;DHT22;4044;49.814;7.828;2023-08-06T09:35:15;17.90;99.90
7998;DHT22;4044;49.814;7.828;2023-08-06T09:37:42;17.90;99.90
7998;DHT22;4044;49.814;7.828;2023-08-06T09:40:30;17.90;99.90
7998;DHT22;4044;49.814;7.828;2023-08-06T09:42:57;17.70;99.90
7998;DHT22;4044;49.814;7.828;2023-08-06T09:45:23;17.30;99.90
7998;DHT22;4044;49.814;7.828;2023-08-06T09:47:57;17.10;99.90
7998;DHT22;4044;49.814;7.828;2023-08-06T09:50:23;17.10;99.90
7998;DHT22;4044;49.814;7.828;2023-08-06T09:52:53;17.10;99.90
7998;DHT22;4044;49.814;7.828;2023-08-06T09:55:19;17.20;99.90
7998;DHT22;4044;49.814;7.828;2023-08-06T09:57:46;17.50;99.90
7998;DHT22;4044;49.814;7.828;2023-08-06T10:00:12;17.80;99.90
7998;DHT22;4044;49.814;7.828;2023-08-06T10:02:39;18.10;99.90
7998;DHT22;4044;49.814;7.828;2023-08-06T10:05:07;18.30;99.90
7998;DHT22;4044;49.814;7.828;2023-08-06T10:07:34;18.30;99.90
7998;DHT22;4044;49.814;7.828;2023-08-06T10:10:00;18.30;99.90
7998;DHT22;4044;49.814;7.828;2023-08-06T10:12:27;18.40;99.90
7998;DHT22;4044;49.814;7.828;2023-08-06T10:14:55;18.60;99.90
7998;DHT22;4044;49.814;7.828;2023-08-06T10:17:22;18.50;99.90
7998;DHT22;4044;49.814;7.828;2023-08-06T10:19:50;18.60;99.90
7998;DHT22;4044;49.814;7.828;2023-08-06T10:22:17;18.40;99.90
7998;DHT22;4044;49.814;7.828;2023-08-06T10:24:50;18.40;99.90
7998;DHT22;4044;49.814;7.828;2023-08-06T10:27:34;18.70;99.90
7998;DHT22;4044;49.814;7.828;2023-08-06T10:32:52;18.40;99.90
7998;DHT22;4044;49.814;7.828;2023-08-06T10:35:34;18.40;99.90
7998;DHT22;4044;49.814;7.828;2023-08-06T10:40:29;18.20;99.90
7998;DHT22;4044;49.814;7.828;2023-08-06T10:42:59;18.30;99.90
7998;DHT22;4044;49.814;7.828;2023-08-06T10:45:25;18.10;99.90
7998;DHT22;4044;49.814;7.828;2023-08-06T10:47:54;18.10;99.90
7998;DHT22;4044;49.814;7.828;2023-08-06T10:50:20;18.20;99.90
7998;DHT22;4044;49.814;7.828;2023-08-06T10:52:46;18.40;99.90
7998;DHT22;4044;49.814;7.828;2023-08-06T10:55:13;18.40;99.90
7998;DHT22;4044;49.814;7.828;2023-08-06T10:57:38;18.70;99.90
7998;DHT22;4044;49.814;7.828;2023-08-06T11:00:05;18.30;99.20
7998;DHT22;4044;49.814;7.828;2023-08-06T11:02:36;18.20;99.60
7998;DHT22;4044;49.814;7.828;2023-08-06T11:05:08;18.10;99.50
7998;DHT22;4044;49.814;7.828;2023-08-06T11:07:35;18.00;99.10
7998;DHT22;4044;49.814;7.828;2023-08-06T11:10:02;18.10;99.90
7998;DHT22;4044;49.814;7.828;2023-08-06T11:12:29;18.30;99.90
7998;DHT22;4044;49.814;7.828;2023-08-06T11:14:55;18.30;99.70
7998;DHT22;4044;49.814;7.828;2023-08-06T11:17:21;18.40;99.90
7998;DHT22;4044;49.814;7.828;2023-08-06T11:19:46;18.40;99.90
7998;DHT22;4044;49.814;7.828;2023-08-06T11:22:13;18.40;99.90
7998;DHT22;4044;49.814;7.828;2023-08-06T11:24:39;18.50;99.90
7998;DHT22;4044;49.814;7.828;2023-08-06T11:27:15;18.40;99.40
7998;DHT22;4044;49.814;7.828;2023-08-06T11:29:41;18.70;99.50
7998;DHT22;4044;49.814;7.828;2023-08-06T11:32:08;18.70;98.90
7998;DHT22;4044;49.814;7.828;2023-08-06T11:34:34;18.70;99.30
7998;DHT22;4044;49.814;7.828;2023-08-06T11:36:59;18.60;98.40
7998;DHT22;4044;49.814;7.828;2023-08-06T11:39:25;18.40;98.30
7998;DHT22;4044;49.814;7.828;2023-08-06T11:41:51;18.50;98.50
7998;DHT22;4044;49.814;7.828;2023-08-06T11:44:19;18.40;98.10
7998;DHT22;4044;49.814;7.828;2023-08-06T11:46:55;18.20;97.00
7998;DHT22;4044;49.814;7.828;2023-08-06T11:49:43;18.20;96.60
7998;DHT22;4044;49.814;7.828;2023-08-06T11:52:19;18.10;97.30
7998;DHT22;4044;49.814;7.828;2023-08-06T11:54:46;18.00;97.00
7998;DHT22;4044;49.814;7.828;2023-08-06T11:57:12;17.90;97.40
7998;DHT22;4044;49.814;7.828;2023-08-06T11:59:39;17.80;97.80
7998;DHT22;4044;49.814;7.828;2023-08-06T12:02:07;17.60;97.80
7998;DHT22;4044;49.814;7.828;2023-08-06T12:04:59;17.80;98.90
7998;DHT22;4044;49.814;7.828;2023-08-06T12:07:29;17.60;98.00
7998;DHT22;4044;49.814;7.828;2023-08-06T12:09:55;17.40;98.20
7998;DHT22;4044;49.814;7.828;2023-08-06T12:12:21;17.60;98.90
7998;DHT22;4044;49.814;7.828;2023-08-06T12:14:46;17.70;98.80
7998;DHT22;4044;49.814;7.828;2023-08-06T12:17:12;17.70;98.80
7998;DHT22;4044;49.814;7.828;2023-08-06T12:19:37;17.40;99.40
7998;DHT22;4044;49.814;7.828;2023-08-06T12:22:03;17.30;99.60
7998;DHT22;4044;49.814;7.828;2023-08-06T12:24:29;17.40;99.80
7998;DHT22;4044;49.814;7.828;2023-08-06T12:26:57;17.50;99.40
7998;DHT22;4044;49.814;7.828;2023-08-06T12:29:23;17.60;99.80
7998;DHT22;4044;49.814;7.828;2023-08-06T12:31:49;17.50;99.00
7998;DHT22;4044;49.814;7.828;2023-08-06T12:34:15;17.40;99.20
7998;DHT22;4044;49.814;7.828;2023-08-06T12:36:40;17.50;99.80
7998;DHT22;4044;49.814;7.828;2023-08-06T12:39:06;17.50;99.20
7998;DHT22;4044;49.814;7.828;2023-08-06T12:41:31;17.50;99.30
7998;DHT22;4044;49.814;7.828;2023-08-06T12:43:57;17.50;99.80
7998;DHT22;4044;49.814;7.828;2023-08-06T12:46:22;17.50;98.90
7998;DHT22;4044;49.814;7.828;2023-08-06T12:48:48;17.30;99.00
7998;DHT22;4044;49.814;7.828;2023-08-06T12:51:14;17.40;98.80
7998;DHT22;4044;49.814;7.828;2023-08-06T12:53:39;17.50;98.70
7998;DHT22;4044;49.814;7.828;2023-08-06T12:56:05;17.70;99.50
7998;DHT22;4044;49.814;7.828;2023-08-06T12:58:31;17.50;98.80
7998;DHT22;4044;49.814;7.828;2023-08-06T13:00:56;17.60;99.20
7998;DHT22;4044;49.814;7.828;2023-08-06T13:03:22;17.50;99.20
7998;DHT22;4044;49.814;7.828;2023-08-06T13:05:47;17.40;99.60
7998;DHT22;4044;49.814;7.828;2023-08-06T13:08:13;17.30;99.90
7998;DHT22;4044;49.814;7.828;2023-08-06T13:10:38;17.10;99.90
7998;DHT22;4044;49.814;7.828;2023-08-06T13:13:04;17.10;99.90
7998;DHT22;4044;49.814;7.828;2023-08-06T13:15:30;17.20;99.90
7998;DHT22;4044;49.814;7.828;2023-08-06T13:17:55;17.30;99.90
7998;DHT22;4044;49.814;7.828;2023-08-06T13:20:21;17.50;99.60
7998;DHT22;4044;49.814;7.828;2023-08-06T13:22:48;17.60;99.70
7998;DHT22;4044;49.814;7.828;2023-08-06T13:25:16;17.90;99.80
7998;DHT22;4044;49.814;7.828;2023-08-06T13:27:42;17.80;98.70
7998;DHT22;4044;49.814;7.828;2023-08-06T13:30:09;17.90;98.70
7998;DHT22;4044;49.814;7.828;2023-08-06T13:32:35;18.00;98.30
7998;DHT22;4044;49.814;7.828;2023-08-06T13:35:05;18.10;98.70
7998;DHT22;4044;49.814;7.828;2023-08-06T13:37:31;18.00;98.20
7998;DHT22;4044;49.814;7.828;2023-08-06T13:39:56;17.80;98.00
7998;DHT22;4044;49.814;7.828;2023-08-06T13:42:22;17.70;98.60
7998;DHT22;4044;49.814;7.828;2023-08-06T13:44:48;17.80;98.80
7998;DHT22;4044;49.814;7.828;2023-08-06T13:47:13;17.70;98.10
7998;DHT22;4044;49.814;7.828;2023-08-06T13:49:39;17.60;98.30
7998;DHT22;4044;49.814;7.828;2023-08-06T13:52:04;17.70;98.90
7998;DHT22;4044;49.814;7.828;2023-08-06T13:54:30;17.80;98.80
7998;DHT22;4044;49.814;7.828;2023-08-06T13:56:56;17.70;98.60
7998;DHT22;4044;49.814;7.828;2023-08-06T13:59:21;17.60;99.30
7998;DHT22;4044;49.814;7.828;2023-08-06T14:01:49;17.50;99.90
7998;DHT22;4044;49.814;7.828;2023-08-06T14:04:15;17.10;99.90
7998;DHT22;4044;49.814;7.828;2023-08-06T14:06:41;16.80;99.90
7998;DHT22;4044;49.814;7.828;2023-08-06T14:09:06;16.50;99.90
7998;DHT22;4044;49.814;7.828;2023-08-06T14:11:33;16.30;99.90
7998;DHT22;4044;49.814;7.828;2023-08-06T14:13:58;16.10;99.90
7998;DHT22;4044;49.814;7.828;2023-08-06T14:16:25;16.10;99.90
7998;DHT22;4044;49.814;7.828;2023-08-06T14:18:51;16.00;99.90
7998;DHT22;4044;49.814;7.828;2023-08-06T14:21:16;16.00;99.90
7998;DHT22;4044;49.814;7.828;2023-08-06T14:23:42;15.80;99.90
7998;DHT22;4044;49.814;7.828;2023-08-06T14:26:07;15.60;99.90
7998;DHT22;4044;49.814;7.828;2023-08-06T14:28:35;15.60;99.90
7998;DHT22;4044;49.814;7.828;2023-08-06T14:31:01;15.60;99.90
7998;DHT22;4044;49.814;7.828;2023-08-06T14:33:27;15.60;99.90
7998;DHT22;4044;49.814;7.828;2023-08-06T14:35:52;15.60;99.90
7998;DHT22;4044;49.814;7.828;2023-08-06T14:38:18;15.40;99.90
7998;DHT22;4044;49.814;7.828;2023-08-06T14:40:44;15.40;99.90
7998;DHT22;4044;49.814;7.828;2023-08-06T14:43:10;15.30;99.90
7998;DHT22;4044;49.814;7.828;2023-08-06T14:45:39;15.30;99.90
7998;DHT22;4044;49.814;7.828;2023-08-06T14:48:05;15.40;99.90
7998;DHT22;4044;49.814;7.828;2023-08-06T14:50:31;15.60;99.90
7998;DHT22;4044;49.814;7.828;2023-08-06T14:52:56;15.70;99.90
7998;DHT22;4044;49.814;7.828;2023-08-06T14:55:25;15.80;99.90
7998;DHT22;4044;49.814;7.828;2023-08-06T14:57:52;16.10;99.90
7998;DHT22;4044;49.814;7.828;2023-08-06T15:00:19;16.20;99.90
7998;DHT22;4044;49.814;7.828;2023-08-06T15:02:44;16.40;99.90
7998;DHT22;4044;49.814;7.828;2023-08-06T15:05:10;16.40;99.90
7998;DHT22;4044;49.814;7.828;2023-08-06T15:07:35;16.30;99.90
7998;DHT22;4044;49.814;7.828;2023-08-06T15:10:05;16.20;99.90
7998;DHT22;4044;49.814;7.828;2023-08-06T15:12:32;16.30;99.90
7998;DHT22;4044;49.814;7.828;2023-08-06T15:15:00;16.40;99.90
7998;DHT22;4044;49.814;7.828;2023-08-06T15:17:27;16.60;99.90
7998;DHT22;4044;49.814;7.828;2023-08-06T15:19:56;16.60;99.90
7998;DHT22;4044;49.814;7.828;2023-08-06T15:22:22;16.80;99.90
7998;DHT22;4044;49.814;7.828;2023-08-06T15:24:48;17.00;99.90
7998;DHT22;4044;49.814;7.828;2023-08-06T15:27:13;17.20;99.90
7998;DHT22;4044;49.814;7.828;2023-08-06T15:29:39;17.20;99.90
7998;DHT22;4044;49.814;7.828;2023-08-06T15:32:05;17.10;99.90
7998;DHT22;4044;49.814;7.828;2023-08-06T15:34:31;17.20;99.90
7998;DHT22;4044;49.814;7.828;2023-08-06T15:36:56;17.40;99.90
7998;DHT22;4044;49.814;7.828;2023-08-06T15:39:21;17.60;99.90
7998;DHT22;4044;49.814;7.828;2023-08-06T15:41:47;17.60;99.90
7998;DHT22;4044;49.814;7.828;2023-08-06T15:44:13;17.60;99.90
7998;DHT22;4044;49.814;7.828;2023-08-06T15:46:38;17.60;99.90
7998;DHT22;4044;49.814;7.828;2023-08-06T15:49:04;17.70;99.90
7998;DHT22;4044;49.814;7.828;2023-08-06T15:51:30;17.60;99.90
7998;DHT22;4044;49.814;7.828;2023-08-06T15:53:56;17.50;99.90
7998;DHT22;4044;49.814;7.828;2023-08-06T15:56:21;17.30;99.90
7998;DHT22;4044;49.814;7.828;2023-08-06T15:58:47;17.20;99.90
7998;DHT22;4044;49.814;7.828;2023-08-06T16:01:12;17.30;99.90
7998;DHT22;4044;49.814;7.828;2023-08-06T16:03:39;17.20;99.90
7998;DHT22;4044;49.814;7.828;2023-08-06T16:06:08;17.20;99.90
7998;DHT22;4044;49.814;7.828;2023-08-06T16:08:34;17.30;99.90
7998;DHT22;4044;49.814;7.828;2023-08-06T16:10:59;17.30;99.90